Time;durP1;ratioP1;P1;durP2;ratioP2;P2;SDS_P1;SDS_P2;PMS_P1;PMS_P2;Temp;Humidity;BMP_temperature;BMP_pressure;BME280_temperature;BME280_humidity;BME280_pressure;Samples;Min_cycle;Max_cycle;Signal;HPM_P1;HPM_P2
2021/05/18 06:12:50;;;;;;;2.53;1.30;;;;;;;;;;4902075;23;20135;-66
2021/05/18 06:16:09;;;;;;;4.13;1.60;;;;;;;;;;4878509;29;20052;-68
2021/05/18 06:47:55;;;;;;;4.38;1.30;;;;;;;;;;4838572;29;20053;-61
2021/05/18 06:50:32;;;;;;;4.78;1.92;;;;;;;;;;4838440;29;20559;-66
2021/05/18 06:52:58;;;;;;;5.47;2.50;;;;;;;;;;4838661;29;20037;-61
2021/05/18 06:55:28;;;;;;;3.20;1.40;;;;;;;;;;4837122;29;20026;-69
2021/05/18 07:00:30;;;;;;;2.70;1.33;;;;;;;;;;4874802;29;20029;-68
2021/05/18 07:02:57;;;;;;;4.00;1.30;;;;;;;;;;4876310;29;20036;-64
2021/05/18 07:07:59;;;;;;;5.38;2.08;;;;;;;;;;4877276;29;20029;-67
2021/05/18 07:10:25;;;;;;;5.50;1.40;;;;;;;;;;4876798;29;20029;-68
2021/05/18 07:12:51;;;;;;;2.53;1.27;;;;;;;;;;4861326;29;20045;-68
2021/05/18 07:15:18;;;;;;;5.38;1.90;;;;;;;;;;4859179;29;20047;-65
2021/05/18 07:17:44;;;;;;;6.70;1.58;;;;;;;;;;4858820;29;20041;-68
2021/05/18 07:20:10;;;;;;;6.78;1.52;;;;;;;;;;4858831;29;20113;-68
2021/05/18 07:22:36;;;;;;;2.55;1.08;;;;;;;;;;4841892;29;20041;-68
2021/05/18 07:25:03;;;;;;;3.78;1.25;;;;;;;;;;4858552;29;20038;-69
2021/05/18 07:27:29;;;;;;;4.07;1.30;;;;;;;;;;4859033;29;20371;-62
2021/05/18 07:29:55;;;;;;;2.75;1.10;;;;;;;;;;4858430;29;20474;-61
2021/05/18 07:32:21;;;;;;;3.72;1.10;;;;;;;;;;4858848;29;20386;-69
2021/05/18 07:34:49;;;;;;;2.70;1.60;;;;;;;;;;4858679;29;20044;-67
2021/05/18 07:37:16;;;;;;;2.28;1.15;;;;;;;;;;4858900;29;20106;-60
2021/05/18 07:39:42;;;;;;;3.33;0.90;;;;;;;;;;4858475;29;20061;-60
2021/05/18 07:42:09;;;;;;;2.58;1.10;;;;;;;;;;4858499;29;20419;-67
2021/05/18 07:44:35;;;;;;;4.03;1.45;;;;;;;;;;4856928;29;20360;-67
2021/05/18 07:47:02;;;;;;;2.22;1.27;;;;;;;;;;4857398;29;20036;-66
2021/05/18 08:05:25;;;;;;;3.13;1.00;;;;;;;;;;4858499;29;20034;-59
2021/05/18 08:07:51;;;;;;;4.45;1.30;;;;;;;;;;4858205;29;20074;-70
2021/05/18 08:10:23;;;;;;;3.00;1.10;;;;;;;;;;4858154;29;20073;-68
2021/05/18 08:12:49;;;;;;;;;;;;;;;;;;4873955;29;20413;-61
2021/05/18 10:36:30;;;;;;;2.38;0.80;;;;;;;;;;4879039;29;20112;-76
2021/05/18 10:39:19;;;;;;;2.60;0.77;;;;;;;;;;4878529;29;20048;-70
2021/05/18 10:41:45;;;;;;;1.90;0.60;;;;;;;;;;4878516;29;20037;-67
2021/05/18 10:44:12;;;;;;;2.38;0.70;;;;;;;;;;4878474;29;20378;-74
2021/05/18 10:46:52;;;;;;;4.30;0.80;;;;;;;;;;4878361;29;20028;-71
2021/05/18 10:49:44;;;;;;;3.60;0.95;;;;;;;;;;4873049;29;20044;-75
2021/05/18 10:52:11;;;;;;;3.90;1.02;;;;;;;;;;4867566;29;20045;-73
2021/05/18 10:54:43;;;;;;;3.40;0.65;;;;;;;;;;4868718;29;20024;-72
2021/05/18 10:57:17;;;;;;;3.67;1.20;;;;;;;;;;4870814;29;20107;-70
2021/05/18 10:59:49;;;;;;;7.32;1.40;;;;;;;;;;4856946;29;20037;-75
2021/05/18 11:02:22;;;;;;;4.00;1.00;;;;;;;;;;4859212;29;20037;-69
2021/05/18 11:05:07;;;;;;;5.30;0.95;;;;;;;;;;4859428;29;20032;-72
2021/05/18 11:07:37;;;;;;;7.20;1.13;;;;;;;;;;4859159;29;20048;-75
2021/05/18 11:10:06;;;;;;;2.38;0.98;;;;;;;;;;4859300;29;20036;-70
2021/05/18 11:12:32;;;;;;;7.65;1.42;;;;;;;;;;4859479;29;20029;-75
2021/05/18 11:14:58;;;;;;;5.28;1.40;;;;;;;;;;4853602;29;20031;-72
2021/05/18 11:17:29;;;;;;;6.18;1.20;;;;;;;;;;4868932;29;20033;-73
2021/05/18 11:20:13;;;;;;;6.53;1.40;;;;;;;;;;4875986;29;20028;-76
2021/05/18 11:25:40;;;;;;;3.20;1.23;;;;;;;;;;4870497;29;20044;-74
2021/05/18 11:28:14;;;;;;;4.97;1.02;;;;;;;;;;4868283;29;20520;-70
2021/05/18 11:30:40;;;;;;;3.55;0.90;;;;;;;;;;4866816;29;20669;-75
2021/05/18 11:33:07;;;;;;;8.15;1.30;;;;;;;;;;4859560;29;20370;-74
2021/05/18 11:35:33;;;;;;;3.80;0.60;;;;;;;;;;4867576;29;20029;-73
2021/05/18 11:38:11;;;;;;;4.32;0.95;;;;;;;;;;4873478;29;20578;-76
2021/05/18 11:40:39;;;;;;;2.35;1.20;;;;;;;;;;4875506;29;20017;-67
2021/05/18 11:43:15;;;;;;;3.35;0.80;;;;;;;;;;4880430;29;20032;-78
2021/05/18 11:45:42;;;;;;;8.38;1.40;;;;;;;;;;4880311;29;20058;-73
2021/05/18 11:48:17;;;;;;;4.00;0.90;;;;;;;;;;4866149;29;20068;-73
2021/05/18 11:51:06;;;;;;;5.22;1.05;;;;;;;;;;4882785;29;20601;-72
2021/05/18 11:53:34;;;;;;;7.93;1.20;;;;;;;;;;4860807;29;20040;-72
2021/05/18 11:56:15;;;;;;;3.53;1.08;;;;;;;;;;4876147;29;20061;-73
2021/05/18 11:58:41;;;;;;;2.92;1.20;;;;;;;;;;4883403;29;20025;-74
2021/05/18 12:01:08;;;;;;;3.38;1.08;;;;;;;;;;4878589;29;20089;-70
2021/05/18 12:03:35;;;;;;;1.77;0.93;;;;;;;;;;4876122;29;20040;-69
2021/05/18 12:06:02;;;;;;;3.33;1.30;;;;;;;;;;4876973;29;20032;-71
2021/05/18 12:08:31;;;;;;;2.22;0.52;;;;;;;;;;4877095;29;20028;-76
2021/05/18 12:11:18;;;;;;;7.05;1.60;;;;;;;;;;4876527;29;20385;-75
2021/05/18 12:13:45;;;;;;;4.13;1.65;;;;;;;;;;4874583;29;20032;-69
2021/05/18 12:16:12;;;;;;;3.30;1.17;;;;;;;;;;4876819;29;20482;-70
2021/05/18 12:18:39;;;;;;;5.30;1.58;;;;;;;;;;4876608;29;20048;-69
2021/05/18 12:21:07;;;;;;;7.57;1.35;;;;;;;;;;4876480;29;20064;-69
2021/05/18 12:23:33;;;;;;;2.10;1.00;;;;;;;;;;4876715;29;20048;-69
2021/05/18 12:26:41;;;;;;;4.25;1.10;;;;;;;;;;4875988;29;20068;-72
2021/05/18 12:29:06;;;;;;;5.57;1.20;;;;;;;;;;4857790;29;20061;-70
2021/05/18 12:31:34;;;;;;;5.13;1.45;;;;;;;;;;4858052;29;20021;-72
2021/05/18 12:34:01;;;;;;;4.22;1.85;;;;;;;;;;4857803;29;20033;-70
2021/05/18 12:36:52;;;;;;;5.38;1.58;;;;;;;;;;4857333;29;20045;-73
2021/05/18 12:42:27;;;;;;;5.93;1.73;;;;;;;;;;4818548;29;20050;-74
2021/05/18 12:44:59;;;;;;;6.35;2.50;;;;;;;;;;4819283;29;20064;-71
2021/05/18 12:47:34;;;;;;;3.58;1.27;;;;;;;;;;4818910;29;20554;-70
2021/05/18 12:50:00;;;;;;;3.33;1.50;;;;;;;;;;4818440;29;20079;-71
2021/05/18 12:52:39;;;;;;;3.85;1.08;;;;;;;;;;4817729;29;20129;-76
2021/05/18 12:55:14;;;;;;;5.15;1.70;;;;;;;;;;4818758;29;20030;-75
2021/05/18 12:57:51;;;;;;;5.15;1.15;;;;;;;;;;4818682;29;20098;-73
2021/05/18 13:00:21;;;;;;;5.10;1.52;;;;;;;;;;4818598;29;20084;-74
2021/05/18 13:02:48;;;;;;;4.45;1.35;;;;;;;;;;4816862;29;20038;-75
2021/05/18 13:05:14;;;;;;;3.80;0.90;;;;;;;;;;4818960;29;20094;-78
2021/05/18 13:07:41;;;;;;;2.40;1.17;;;;;;;;;;4819115;29;20031;-74
2021/05/18 13:10:07;;;;;;;4.22;1.13;;;;;;;;;;4818833;29;20153;-75
2021/05/18 13:12:33;;;;;;;1.45;0.65;;;;;;;;;;4818426;29;20046;-72
2021/05/18 13:14:59;;;;;;;1.75;0.70;;;;;;;;;;4818331;29;20032;-74
2021/05/18 13:17:26;;;;;;;4.03;0.90;;;;;;;;;;4803003;29;20064;-70
2021/05/18 13:19:59;;;;;;;4.07;0.90;;;;;;;;;;4856507;29;20092;-78
2021/05/18 13:22:27;;;;;;;3.20;0.98;;;;;;;;;;4857400;29;20074;-72
2021/05/18 13:27:50;;;;;;;3.63;0.98;;;;;;;;;;4869775;29;20053;-68
2021/05/18 13:30:16;;;;;;;1.65;0.90;;;;;;;;;;4875575;29;20124;-69
2021/05/18 13:32:43;;;;;;;2.08;0.90;;;;;;;;;;4876083;29;20065;-67
2021/05/18 13:35:09;;;;;;;1.50;0.70;;;;;;;;;;4875846;29;20108;-68
2021/05/18 13:37:35;;;;;;;4.85;0.85;;;;;;;;;;4876149;29;20029;-70
2021/05/18 13:40:01;;;;;;;4.13;1.10;;;;;;;;;;4874878;29;20038;-67
2021/05/18 13:42:27;;;;;;;2.78;1.13;;;;;;;;;;4875957;29;20124;-70
2021/05/18 13:44:53;;;;;;;2.05;0.80;;;;;;;;;;4879271;29;20060;-69
2021/05/18 13:47:19;;;;;;;3.17;1.10;;;;;;;;;;4879096;29;20029;-69
2021/05/18 13:49:45;;;;;;;2.97;0.80;;;;;;;;;;4878912;29;20040;-71
2021/05/18 13:52:14;;;;;;;5.07;1.05;;;;;;;;;;4878995;29;20029;-67
2021/05/18 13:54:41;;;;;;;1.88;0.90;;;;;;;;;;4878917;29;20029;-73
2021/05/18 13:57:07;;;;;;;1.95;0.70;;;;;;;;;;4862162;29;20413;-72
2021/05/18 13:59:33;;;;;;;3.65;1.10;;;;;;;;;;4878813;29;20444;-68
2021/05/18 14:02:00;;;;;;;5.40;1.42;;;;;;;;;;4879277;29;20478;-68
2021/05/18 14:04:26;;;;;;;2.88;1.50;;;;;;;;;;4877779;29;20041;-69
2021/05/18 14:07:01;;;;;;;2.03;0.80;;;;;;;;;;4877806;29;20474;-68
2021/05/18 14:09:27;;;;;;;3.38;1.10;;;;;;;;;;4878181;29;20052;-65
2021/05/18 14:11:53;;;;;;;3.25;0.90;;;;;;;;;;4878182;29;20044;-67
2021/05/18 14:14:22;;;;;;;2.58;1.60;;;;;;;;;;4876969;29;20021;-73
2021/05/18 14:16:48;;;;;;;4.07;1.33;;;;;;;;;;4863435;29;20067;-70
2021/05/18 14:19:16;;;;;;;3.83;1.00;;;;;;;;;;4867877;29;20029;-78
2021/05/18 14:21:43;;;;;;;4.18;1.10;;;;;;;;;;4866623;29;20034;-72
2021/05/18 14:26:40;;;;;;;5.85;2.38;;;;;;;;;;5196141;23;20057;-65
2021/05/18 14:29:06;;;;;;;3.00;1.50;;;;;;;;;;4895580;29;20492;-64
2021/05/18 14:31:34;;;;;;;3.08;1.15;;;;;;;;;;4879054;29;20568;-64
2021/05/18 14:34:00;;;;;;;2.53;1.00;;;;;;;;;;4895376;29;20055;-66
2021/05/18 14:36:27;;;;;;;2.00;0.90;;;;;;;;;;4895590;29;20028;-64
2021/05/18 14:38:53;;;;;;;1.58;0.60;;;;;;;;;;4879091;29;20630;-66
2021/05/18 14:54:27;;;;;;;2.05;1.00;;;;;;;;;;4895190;29;20043;-66
2021/05/18 14:56:54;;;;;;;1.27;0.60;;;;;;;;;;4895582;29;20037;-68
2021/05/18 14:59:20;;;;;;;3.22;1.25;;;;;;;;;;4877636;29;20040;-68
2021/05/18 15:01:46;;;;;;;2.45;0.80;;;;;;;;;;4895376;29;20039;-66
2021/05/18 15:04:12;;;;;;;4.13;0.65;;;;;;;;;;4894948;29;20397;-65
2021/05/18 15:06:40;;;;;;;1.55;0.75;;;;;;;;;;4889123;29;20380;-65
2021/05/18 15:09:07;;;;;;;3.25;0.80;;;;;;;;;;4876340;29;20383;-63
2021/05/18 15:11:33;;;;;;;2.35;0.70;;;;;;;;;;4876469;29;20025;-66
2021/05/18 15:13:59;;;;;;;3.70;0.77;;;;;;;;;;4876490;29;20037;-63
2021/05/18 15:16:25;;;;;;;2.40;0.80;;;;;;;;;;4876148;29;20116;-66
2021/05/18 15:18:53;;;;;;;3.17;0.70;;;;;;;;;;4889353;29;20116;-65
2021/05/18 15:21:19;;;;;;;2.83;0.70;;;;;;;;;;4894497;29;20036;-63
2021/05/18 15:23:45;;;;;;;1.48;0.57;;;;;;;;;;4894292;29;20378;-66
2021/05/18 15:26:11;;;;;;;1.90;0.65;;;;;;;;;;4891163;29;20130;-69
2021/05/18 15:28:43;;;;;;;1.00;0.60;;;;;;;;;;4876365;29;20085;-62
2021/05/18 15:31:13;;;;;;;1.20;0.30;;;;;;;;;;4876524;29;20041;-62
2021/05/18 15:33:41;;;;;;;1.25;0.30;;;;;;;;;;4876893;29;20036;-62
2021/05/18 15:36:07;;;;;;;0.75;0.50;;;;;;;;;;4876044;29;20087;-62
2021/05/18 15:38:38;;;;;;;2.22;0.88;;;;;;;;;;4869891;29;20034;-67
2021/05/18 15:41:07;;;;;;;3.20;0.50;;;;;;;;;;4868141;29;20029;-64
2021/05/18 15:43:34;;;;;;;0.98;0.60;;;;;;;;;;4874739;29;20056;-65
2021/05/18 15:46:01;;;;;;;1.45;0.63;;;;;;;;;;4872263;29;20139;-65
2021/05/18 15:48:27;;;;;;;1.05;0.50;;;;;;;;;;4874065;29;20105;-68
2021/05/18 15:50:53;;;;;;;2.90;0.80;;;;;;;;;;4875014;29;20757;-64
2021/05/18 15:53:19;;;;;;;4.15;0.70;;;;;;;;;;4874296;29;20462;-68
2021/05/18 15:55:45;;;;;;;2.10;0.55;;;;;;;;;;4874595;29;20041;-67
2021/05/18 15:58:12;;;;;;;1.67;0.60;;;;;;;;;;4874400;29;20048;-65
2021/05/18 16:00:38;;;;;;;2.80;0.70;;;;;;;;;;4874478;29;20491;-65
2021/05/18 16:03:05;;;;;;;6.07;0.85;;;;;;;;;;4874910;29;20036;-65
2021/05/18 16:05:31;;;;;;;3.80;0.85;;;;;;;;;;4874719;29;20033;-64
2021/05/18 16:10:56;;;;;;;2.33;1.00;;;;;;;;;;4784500;29;20150;-68
2021/05/18 16:13:22;;;;;;;5.28;0.88;;;;;;;;;;4786754;29;20042;-67
2021/05/18 16:15:49;;;;;;;14.50;1.50;;;;;;;;;;4793351;29;20521;-65
2021/05/18 16:18:15;;;;;;;7.90;1.70;;;;;;;;;;4783436;29;20504;-70
2021/05/18 16:20:41;;;;;;;2.90;1.00;;;;;;;;;;4781757;30;20047;-69
2021/05/18 16:23:08;;;;;;;6.93;1.42;;;;;;;;;;4781143;30;20488;-67
2021/05/18 16:25:34;;;;;;;1.42;0.65;;;;;;;;;;4781257;30;20078;-67
2021/05/18 16:28:00;;;;;;;2.88;0.68;;;;;;;;;;4797177;29;20071;-68
2021/05/18 16:30:26;;;;;;;1.40;0.47;;;;;;;;;;4799663;29;20103;-67
2021/05/18 16:32:52;;;;;;;0.93;0.60;;;;;;;;;;4799831;29;20535;-69
2021/05/18 16:35:18;;;;;;;1.08;0.50;;;;;;;;;;4799135;29;20167;-65
2021/05/18 16:37:44;;;;;;;1.15;0.40;;;;;;;;;;4799626;29;20066;-68
2021/05/18 16:40:11;;;;;;;1.23;0.50;;;;;;;;;;4782788;29;20043;-69
2021/05/18 16:42:38;;;;;;;2.72;0.55;;;;;;;;;;4799516;29;20047;-68
2021/05/18 16:45:05;;;;;;;1.35;0.60;;;;;;;;;;4800584;29;20115;-69
2021/05/18 16:47:31;;;;;;;6.05;1.00;;;;;;;;;;4866714;29;20056;-68
2021/05/18 16:49:57;;;;;;;3.33;0.80;;;;;;;;;;4872621;29;20140;-70
2021/05/18 16:52:23;;;;;;;4.43;0.75;;;;;;;;;;4866216;29;20062;-69
2021/05/18 16:54:49;;;;;;;2.35;0.82;;;;;;;;;;4864488;29;20379;-67
2021/05/18 16:57:15;;;;;;;1.60;0.60;;;;;;;;;;4864988;29;20033;-68
2021/05/18 16:59:41;;;;;;;2.13;0.60;;;;;;;;;;4866318;29;20505;-69
2021/05/18 17:02:08;;;;;;;0.88;0.45;;;;;;;;;;4864244;29;20555;-65
2021/05/18 17:04:34;;;;;;;1.55;0.60;;;;;;;;;;4872426;29;20037;-69
2021/05/18 17:07:02;;;;;;;1.80;0.50;;;;;;;;;;4874839;29;20029;-69
2021/05/18 17:09:29;;;;;;;1.23;0.60;;;;;;;;;;4874740;29;20037;-67
2021/05/18 17:11:56;;;;;;;1.45;0.73;;;;;;;;;;4874978;29;20113;-68
2021/05/18 17:14:23;;;;;;;1.80;0.65;;;;;;;;;;4874879;29;20025;-68
2021/05/18 17:16:50;;;;;;;2.70;0.68;;;;;;;;;;4874747;29;20040;-67
2021/05/18 17:19:16;;;;;;;3.50;1.55;;;;;;;;;;4878374;29;20029;-68
2021/05/18 17:21:42;;;;;;;2.35;0.80;;;;;;;;;;4878019;29;20037;-67
2021/05/18 17:24:08;;;;;;;1.63;0.80;;;;;;;;;;4878032;29;20037;-67
2021/05/18 17:26:35;;;;;;;1.90;0.85;;;;;;;;;;4884567;29;20061;-68
2021/05/18 17:29:01;;;;;;;3.00;0.90;;;;;;;;;;4897778;29;20495;-68
2021/05/18 17:31:27;;;;;;;4.13;1.00;;;;;;;;;;4898185;29;20396;-69
2021/05/18 17:33:53;;;;;;;2.88;1.05;;;;;;;;;;4897911;29;20041;-69
2021/05/18 17:36:20;;;;;;;3.95;1.15;;;;;;;;;;4897817;29;20029;-68
2021/05/18 17:38:46;;;;;;;3.85;1.42;;;;;;;;;;4897825;29;20397;-69
2021/05/18 17:41:12;;;;;;;5.35;3.50;;;;;;;;;;4894624;29;20048;-68
2021/05/18 17:43:38;;;;;;;4.32;1.80;;;;;;;;;;4896774;29;20157;-67
2021/05/18 17:46:08;;;;;;;3.83;1.63;;;;;;;;;;4897680;29;20496;-68
2021/05/18 17:48:34;;;;;;;6.20;2.40;;;;;;;;;;4897833;29;20028;-67
2021/05/18 17:51:00;;;;;;;3.67;2.10;;;;;;;;;;4898168;29;20473;-68
2021/05/18 17:53:27;;;;;;;3.65;1.75;;;;;;;;;;4897225;29;20485;-68
2021/05/18 17:55:53;;;;;;;6.07;1.77;;;;;;;;;;4897546;29;20061;-66
2021/05/18 17:58:19;;;;;;;6.18;2.80;;;;;;;;;;4897536;29;20044;-69
2021/05/18 18:00:46;;;;;;;7.82;3.25;;;;;;;;;;4897706;29;20183;-68
2021/05/18 18:03:12;;;;;;;6.53;2.80;;;;;;;;;;4896315;29;20083;-65
2021/05/18 18:05:38;;;;;;;8.00;3.03;;;;;;;;;;4895985;29;20033;-66
2021/05/18 18:08:05;;;;;;;9.18;2.97;;;;;;;;;;4897457;29;20062;-64
2021/05/18 18:10:31;;;;;;;5.97;2.92;;;;;;;;;;4897479;29;20029;-65
2021/05/18 18:12:57;;;;;;;7.50;4.18;;;;;;;;;;4897634;29;20187;-68
2021/05/18 18:15:23;;;;;;;7.55;3.40;;;;;;;;;;4897658;29;20028;-65
2021/05/18 18:17:50;;;;;;;6.47;3.22;;;;;;;;;;4880445;29;20028;-67
2021/05/18 18:20:16;;;;;;;6.07;3.13;;;;;;;;;;4897601;29;20029;-64
2021/05/18 18:22:43;;;;;;;5.97;3.53;;;;;;;;;;4897514;29;20040;-66
2021/05/18 18:25:09;;;;;;;6.85;3.00;;;;;;;;;;4879109;29;20052;-67
2021/05/18 18:27:36;;;;;;;9.73;3.42;;;;;;;;;;4883686;29;20049;-66
2021/05/18 18:30:04;;;;;;;8.15;4.72;;;;;;;;;;4877900;29;20109;-66
2021/05/18 18:32:30;;;;;;;8.73;4.75;;;;;;;;;;4878334;29;20028;-68
2021/05/18 18:34:56;;;;;;;9.82;4.10;;;;;;;;;;4878120;29;20029;-65
2021/05/18 18:37:22;;;;;;;13.68;3.95;;;;;;;;;;4878085;29;20066;-66
2021/05/18 18:39:48;;;;;;;13.95;4.72;;;;;;;;;;4877813;29;20032;-71
2021/05/18 18:42:14;;;;;;;11.40;3.83;;;;;;;;;;4877509;29;20363;-70
2021/05/18 18:44:42;;;;;;;8.55;3.47;;;;;;;;;;4877917;29;20029;-67
2021/05/18 18:47:11;;;;;;;7.82;3.20;;;;;;;;;;4877756;29;20021;-70
2021/05/18 18:49:40;;;;;;;8.02;4.32;;;;;;;;;;4875369;29;20025;-71
2021/05/18 18:52:08;;;;;;;9.10;3.78;;;;;;;;;;4877806;29;20029;-70
2021/05/18 18:54:35;;;;;;;12.02;3.17;;;;;;;;;;4877527;29;20144;-67
2021/05/18 18:57:01;;;;;;;7.13;3.53;;;;;;;;;;4877492;29;20509;-68
2021/05/18 18:59:28;;;;;;;7.72;3.58;;;;;;;;;;4877447;29;20033;-66
2021/05/18 19:01:59;;;;;;;11.88;5.07;;;;;;;;;;4869846;29;20769;-69
2021/05/18 19:04:31;;;;;;;10.30;4.05;;;;;;;;;;4865945;29;20084;-68
2021/05/18 19:14:40;;;;;;;12.52;4.32;;;;;;;;;;4866860;29;20030;-67
2021/05/18 19:17:06;;;;;;;9.85;4.93;;;;;;;;;;4867850;29;20032;-69
2021/05/18 19:19:32;;;;;;;14.35;4.60;;;;;;;;;;4868714;29;20026;-66
2021/05/18 19:21:58;;;;;;;12.93;4.60;;;;;;;;;;4866737;29;20022;-67
2021/05/18 19:24:25;;;;;;;10.38;4.68;;;;;;;;;;4868231;29;20041;-66
2021/05/18 19:26:52;;;;;;;10.25;4.85;;;;;;;;;;4870994;29;20053;-70
2021/05/18 19:29:18;;;;;;;13.93;5.10;;;;;;;;;;4876810;29;20047;-67
2021/05/18 19:31:44;;;;;;;22.10;6.20;;;;;;;;;;4877273;29;20029;-67
2021/05/18 19:34:16;;;;;;;15.43;5.25;;;;;;;;;;4877415;29;20021;-71
2021/05/18 19:50:17;;;;;;;17.45;7.22;;;;;;;;;;4877333;29;20390;-69
2021/05/18 19:52:46;;;;;;;17.95;7.55;;;;;;;;;;4877083;29;20047;-66
2021/05/18 19:55:14;;;;;;;21.38;7.05;;;;;;;;;;4876636;29;20052;-67
2021/05/18 19:57:49;;;;;;;17.00;6.95;;;;;;;;;;4877081;29;20088;-61
2021/05/18 20:08:47;;;;;;;17.55;7.70;;;;;;;;;;4875187;29;20036;-60
2021/05/18 20:17:05;;;;;;;23.50;8.43;;;;;;;;;;4876339;29;20056;-60
2021/05/18 20:22:09;;;;;;;14.60;7.57;;;;;;;;;;4875792;29;20040;-61
2021/05/18 20:24:36;;;;;;;19.05;6.85;;;;;;;;;;4874293;29;20493;-61
2021/05/18 20:27:03;;;;;;;14.68;6.53;;;;;;;;;;4871095;29;20052;-61
2021/05/18 20:29:29;;;;;;;19.65;6.32;;;;;;;;;;4871245;29;20045;-60
2021/05/18 20:31:56;;;;;;;14.23;6.18;;;;;;;;;;4876489;29;20077;-61
2021/05/18 20:39:46;;;;;;;17.92;7.80;;;;;;;;;;4865939;29;20166;-67
2021/05/18 20:42:13;;;;;;;22.95;8.02;;;;;;;;;;4867473;29;20025;-63
2021/05/18 20:44:39;;;;;;;26.67;7.85;;;;;;;;;;4866160;29;20033;-61
2021/05/18 20:47:05;;;;;;;15.75;6.93;;;;;;;;;;4865779;29;20029;-65
2021/05/18 20:49:32;;;;;;;21.85;7.40;;;;;;;;;;4865264;29;20057;-61
2021/05/18 20:52:00;;;;;;;20.92;7.65;;;;;;;;;;4868121;29;20159;-61
2021/05/18 20:54:26;;;;;;;14.45;6.45;;;;;;;;;;4880065;29;20456;-62
2021/05/18 20:56:53;;;;;;;15.73;6.85;;;;;;;;;;4870805;29;20043;-62
2021/05/18 20:59:19;;;;;;;16.60;6.40;;;;;;;;;;4861184;29;20082;-66
2021/05/18 21:01:45;;;;;;;20.27;6.60;;;;;;;;;;4861387;29;20340;-61
2021/05/18 21:04:12;;;;;;;18.08;7.13;;;;;;;;;;4866162;29;20154;-66
2021/05/18 21:06:40;;;;;;;15.00;6.10;;;;;;;;;;4871281;29;20013;-61
2021/05/18 21:12:11;;;;;;;9.15;4.50;;;;;;;;;;4795213;29;20092;-66
2021/05/18 21:17:22;;;;;;;14.77;6.10;;;;;;;;;;4800883;29;20049;-61
2021/05/18 21:19:48;;;;;;;15.20;6.65;;;;;;;;;;4804426;29;20419;-61
2021/05/18 21:22:14;;;;;;;14.45;6.32;;;;;;;;;;4803775;29;20101;-66
2021/05/18 21:24:40;;;;;;;14.88;6.63;;;;;;;;;;4802235;29;20110;-67
2021/05/18 21:27:06;;;;;;;11.73;6.35;;;;;;;;;;4788800;29;20133;-62
2021/05/18 21:29:32;;;;;;;16.88;6.60;;;;;;;;;;4793437;29;20047;-64
2021/05/18 21:31:59;;;;;;;16.55;7.22;;;;;;;;;;4793030;29;20585;-68
2021/05/18 21:34:25;;;;;;;17.73;6.07;;;;;;;;;;4793813;29;20042;-65
2021/05/18 21:36:52;;;;;;;18.45;7.07;;;;;;;;;;4796371;29;20038;-65
2021/05/18 21:39:24;;;;;;;15.73;6.72;;;;;;;;;;4797806;29;20043;-66
2021/05/18 21:41:55;;;;;;;19.63;7.45;;;;;;;;;;4796867;29;20516;-64
2021/05/18 21:44:22;;;;;;;19.33;6.97;;;;;;;;;;4797609;29;20031;-66
2021/05/18 21:46:48;;;;;;;19.13;7.63;;;;;;;;;;4797116;29;20023;-65
2021/05/18 21:49:14;;;;;;;15.95;7.97;;;;;;;;;;4843568;29;20069;-62
2021/05/18 21:51:41;;;;;;;14.82;6.68;;;;;;;;;;4873051;29;20025;-65
2021/05/18 21:54:07;;;;;;;18.95;6.88;;;;;;;;;;4871872;29;20025;-65
2021/05/18 21:56:33;;;;;;;19.02;6.65;;;;;;;;;;4871435;29;20128;-63
2021/05/18 21:59:00;;;;;;;14.80;7.20;;;;;;;;;;4871459;29;20073;-61
2021/05/18 22:01:26;;;;;;;18.80;6.40;;;;;;;;;;4871590;29;20053;-63
2021/05/18 22:03:52;;;;;;;17.35;6.30;;;;;;;;;;4870942;29;20072;-62
2021/05/18 22:06:21;;;;;;;13.20;5.47;;;;;;;;;;4873471;29;20105;-61
2021/05/18 22:09:16;;;;;;;14.40;5.45;;;;;;;;;;4871256;29;20037;-61
2021/05/18 22:27:26;;;;;;;12.07;4.75;;;;;;;;;;4877228;29;20886;-63
2021/05/18 22:29:53;;;;;;;15.73;4.80;;;;;;;;;;4879102;29;20089;-62
2021/05/18 22:32:19;;;;;;;16.08;5.28;;;;;;;;;;4870625;29;20034;-65
2021/05/18 22:34:45;;;;;;;13.00;5.28;;;;;;;;;;4857311;29;20108;-63
2021/05/18 22:37:11;;;;;;;9.15;4.07;;;;;;;;;;4860216;29;20025;-70
2021/05/18 22:39:37;;;;;;;10.80;4.38;;;;;;;;;;4860215;29;20168;-82
2021/05/18 22:42:04;;;;;;;10.30;3.80;;;;;;;;;;4860422;29;20557;-61
2021/05/18 22:44:30;;;;;;;9.52;4.95;;;;;;;;;;4860023;29;20076;-67
2021/05/18 22:46:56;;;;;;;10.63;4.43;;;;;;;;;;4860037;29;20032;-69
2021/05/18 22:49:22;;;;;;;10.27;4.45;;;;;;;;;;4859732;29;20033;-68
2021/05/18 22:51:48;;;;;;;15.45;5.28;;;;;;;;;;4860094;29;20501;-65
2021/05/18 22:54:14;;;;;;;9.35;4.30;;;;;;;;;;4860052;29;20074;-63
2021/05/18 22:56:40;;;;;;;10.93;4.68;;;;;;;;;;4859898;29;20060;-63
2021/05/18 22:59:07;;;;;;;15.35;5.00;;;;;;;;;;4860003;29;20064;-78
2021/05/18 23:01:33;;;;;;;8.85;4.63;;;;;;;;;;4859975;29;20030;-64
2021/05/18 23:03:59;;;;;;;11.52;4.25;;;;;;;;;;4859456;29;20410;-64
2021/05/18 23:06:25;;;;;;;12.82;4.78;;;;;;;;;;4860105;29;20045;-74
2021/05/18 23:08:51;;;;;;;12.10;4.72;;;;;;;;;;4859798;29;20036;-63
2021/05/18 23:11:17;;;;;;;11.60;4.25;;;;;;;;;;4859600;29;20029;-63
2021/05/18 23:13:43;;;;;;;12.82;3.95;;;;;;;;;;4859747;29;20497;-63
2021/05/18 23:16:12;;;;;;;14.18;4.40;;;;;;;;;;4858907;29;20036;-63
2021/05/18 23:18:38;;;;;;;12.20;3.80;;;;;;;;;;4859464;29;20105;-68
